createdAt,value
2023-05-18T00:02:21.078Z,8.48
2023-05-18T00:04:47.941Z,6.13
2023-05-18T00:07:15.537Z,6.90
2023-05-18T00:09:42.304Z,7.60
2023-05-18T00:12:10.136Z,7.45
2023-05-18T00:14:37.072Z,12.13
2023-05-18T00:17:03.811Z,5.90
2023-05-18T00:19:31.347Z,10.38
2023-05-18T00:21:58.334Z,7.50
2023-05-18T00:24:25.181Z,5.82
2023-05-18T00:26:51.929Z,8.45
2023-05-18T00:29:18.807Z,8.98
2023-05-18T00:31:46.809Z,9.73
2023-05-18T00:34:15.120Z,8.25
2023-05-18T00:36:42.808Z,7.10
2023-05-18T00:39:09.740Z,8.18
2023-05-18T00:41:36.806Z,12.65
2023-05-18T00:44:05.077Z,6.35
2023-05-18T00:46:32.630Z,7.22
2023-05-18T00:49:02.242Z,6.18
2023-05-18T00:51:32.109Z,13.30
2023-05-18T00:54:01.651Z,6.75
2023-05-18T00:56:29.367Z,16.52
2023-05-18T00:58:57.424Z,7.43
2023-05-18T01:01:34.785Z,9.15
2023-05-18T01:04:03.093Z,6.30
2023-05-18T01:06:32.928Z,10.55
2023-05-18T01:09:02.628Z,11.68
2023-05-18T01:11:57.189Z,14.05
2023-05-18T01:14:41.164Z,12.02
2023-05-18T01:17:43.869Z,9.32
2023-05-18T01:20:38.052Z,9.77
2023-05-18T01:23:17.771Z,6.63
2023-05-18T01:25:56.008Z,8.73
2023-05-18T01:28:30.431Z,7.53
2023-05-18T01:30:58.417Z,10.88
2023-05-18T01:33:25.705Z,6.47
2023-05-18T01:35:52.869Z,8.75
2023-05-18T01:38:28.693Z,8.68
2023-05-18T01:41:01.365Z,11.18
2023-05-18T01:43:34.190Z,8.75
2023-05-18T01:46:16.253Z,9.52
2023-05-18T01:48:48.552Z,6.22
2023-05-18T01:51:17.896Z,8.80
2023-05-18T01:53:51.465Z,8.85
2023-05-18T01:56:20.848Z,9.07
2023-05-18T01:58:48.390Z,6.45
2023-05-18T02:01:17.049Z,12.82
2023-05-18T02:03:44.329Z,8.32
2023-05-18T02:06:11.280Z,9.10
2023-05-18T02:08:38.896Z,7.72
2023-05-18T02:11:05.566Z,7.63
2023-05-18T02:13:33.394Z,7.47
2023-05-18T02:16:00.288Z,9.45
2023-05-18T02:18:27.086Z,9.30
2023-05-18T02:21:00.768Z,6.03
2023-05-18T02:23:27.786Z,8.57
2023-05-18T02:25:58.132Z,7.82
2023-05-18T02:28:25.453Z,10.05
2023-05-18T02:30:52.215Z,8.52
2023-05-18T02:33:19.800Z,10.27
2023-05-18T02:35:46.732Z,7.40
2023-05-18T02:38:13.637Z,5.40
2023-05-18T02:40:40.733Z,8.00
2023-05-18T02:43:07.622Z,8.88
2023-05-18T02:45:34.540Z,8.48
2023-05-18T02:48:01.735Z,7.85
2023-05-18T02:50:28.746Z,8.55
2023-05-18T02:52:56.179Z,9.00
2023-05-18T02:55:23.324Z,9.00
2023-05-18T02:58:10.381Z,7.78
2023-05-18T03:00:55.248Z,10.23
2023-05-18T03:03:23.953Z,9.88
2023-05-18T03:05:54.131Z,14.63
2023-05-18T03:08:22.814Z,7.00
2023-05-18T03:10:50.352Z,5.90
2023-05-18T03:13:17.805Z,6.05
2023-05-18T03:15:45.614Z,7.82
2023-05-18T03:18:13.585Z,7.15
2023-05-18T03:20:40.739Z,5.70
2023-05-18T03:23:08.639Z,6.10
2023-05-18T03:25:37.462Z,5.30
2023-05-18T03:28:06.547Z,4.20
2023-05-18T03:30:34.350Z,6.43
2023-05-18T03:33:02.816Z,5.25
2023-05-18T03:35:30.971Z,6.55
2023-05-18T03:37:57.944Z,6.68
2023-05-18T03:40:25.149Z,7.10
2023-05-18T03:42:52.486Z,5.72
2023-05-18T03:45:19.632Z,6.07
2023-05-18T03:47:46.577Z,8.55
2023-05-18T03:50:13.693Z,6.65
2023-05-18T03:52:41.617Z,5.57
2023-05-18T03:55:09.049Z,5.10
2023-05-18T03:57:36.447Z,6.82
2023-05-18T04:00:07.123Z,5.68
2023-05-18T04:02:43.915Z,8.75
2023-05-18T04:05:12.259Z,6.95
2023-05-18T04:07:44.292Z,6.55
2023-05-18T04:10:12.803Z,7.07
2023-05-18T04:12:40.894Z,6.47
2023-05-18T04:15:08.456Z,7.38
2023-05-18T04:17:35.721Z,5.93
2023-05-18T04:20:11.589Z,6.55
2023-05-18T04:22:49.226Z,6.97
2023-05-18T04:25:17.854Z,8.63
2023-05-18T04:27:51.244Z,7.03
2023-05-18T04:30:19.036Z,6.07
2023-05-18T04:32:46.232Z,7.53
2023-05-18T04:35:13.204Z,5.43
2023-05-18T04:37:40.997Z,6.80
2023-05-18T04:40:17.137Z,6.32
2023-05-18T04:42:47.707Z,4.50
2023-05-18T04:45:19.602Z,6.03
2023-05-18T04:47:53.563Z,3.78
2023-05-18T04:50:25.948Z,5.88
2023-05-18T04:55:26.473Z,4.25
2023-05-18T04:57:57.430Z,3.67
2023-05-18T05:00:31.605Z,5.68
2023-05-18T05:02:59.351Z,5.53
2023-05-18T05:05:27.231Z,3.92
2023-05-18T05:07:54.551Z,6.28
2023-05-18T05:10:22.305Z,4.40
2023-05-18T05:12:52.521Z,4.40
2023-05-18T05:15:20.021Z,4.93
2023-05-18T05:17:50.383Z,7.70
2023-05-18T05:20:17.802Z,6.47
2023-05-18T05:22:44.821Z,4.65
2023-05-18T05:25:14.344Z,7.05
2023-05-18T05:27:41.872Z,6.30
2023-05-18T05:30:09.361Z,5.55
2023-05-18T05:32:37.350Z,4.85
2023-05-18T05:35:06.687Z,5.82
2023-05-18T05:37:35.425Z,15.13
2023-05-18T05:40:09.660Z,6.43
2023-05-18T05:42:42.102Z,4.10
2023-05-18T05:45:09.240Z,5.88
2023-05-18T05:47:43.655Z,4.15
2023-05-18T05:50:11.196Z,5.65
2023-05-18T05:52:38.395Z,4.50
2023-05-18T05:55:06.644Z,3.80
2023-05-18T05:57:33.401Z,6.35
2023-05-18T06:00:00.467Z,4.68
2023-05-18T06:02:27.613Z,4.65
2023-05-18T06:04:55.940Z,6.03
2023-05-18T06:07:22.795Z,4.53
2023-05-18T06:09:50.359Z,4.95
2023-05-18T06:12:18.422Z,5.47
2023-05-18T06:14:45.211Z,6.40
2023-05-18T06:17:12.764Z,5.50
2023-05-18T06:19:39.557Z,4.97
2023-05-18T06:22:06.622Z,5.22
2023-05-18T06:24:42.386Z,7.38
2023-05-18T06:27:27.779Z,6.00
2023-05-18T06:30:17.859Z,9.35
2023-05-18T06:32:58.855Z,3.97
2023-05-18T06:35:26.122Z,3.45
2023-05-18T06:37:53.054Z,5.60
2023-05-18T06:40:19.959Z,3.20
2023-05-18T06:42:46.895Z,3.75
2023-05-18T06:45:46.971Z,7.47
2023-05-18T06:48:34.007Z,3.15
2023-05-18T06:51:00.801Z,4.32
2023-05-18T06:53:27.834Z,5.57
2023-05-18T06:55:55.463Z,4.18
2023-05-18T06:58:22.897Z,7.35
2023-05-18T07:00:50.747Z,6.95
2023-05-18T07:03:17.900Z,5.68
2023-05-18T07:05:44.750Z,7.82
2023-05-18T07:08:11.558Z,4.68
2023-05-18T07:10:38.519Z,5.32
2023-05-18T07:13:05.281Z,5.32
2023-05-18T07:15:32.545Z,32.40
2023-05-18T07:17:59.718Z,4.25
2023-05-18T07:20:26.910Z,3.97
2023-05-18T07:22:55.884Z,3.55
2023-05-18T07:25:23.738Z,3.45
2023-05-18T07:27:54.594Z,4.72
2023-05-18T07:30:22.335Z,3.85
2023-05-18T07:32:49.301Z,4.15
2023-05-18T07:35:17.082Z,4.10
2023-05-18T07:37:43.872Z,5.20
2023-05-18T07:40:11.446Z,4.55
2023-05-18T07:42:39.706Z,4.32
2023-05-18T07:45:07.840Z,2.97
2023-05-18T07:47:34.670Z,6.47
2023-05-18T07:50:01.446Z,4.90
2023-05-18T07:52:28.742Z,3.97
2023-05-18T07:54:57.307Z,3.85
2023-05-18T07:57:24.829Z,3.58
2023-05-18T07:59:52.002Z,3.15
2023-05-18T08:02:20.028Z,6.28
2023-05-18T08:04:48.143Z,7.43
2023-05-18T08:07:15.013Z,7.47
2023-05-18T08:09:41.878Z,13.10
2023-05-18T08:12:09.250Z,8.77
2023-05-18T08:14:36.026Z,5.70
2023-05-18T08:17:04.955Z,7.72
2023-05-18T08:19:32.069Z,3.88
2023-05-18T08:21:58.956Z,5.13
2023-05-18T08:24:25.884Z,5.22
2023-05-18T08:26:52.657Z,6.78
2023-05-18T08:29:19.544Z,3.75
2023-05-18T08:31:49.169Z,6.05
2023-05-18T08:34:16.718Z,4.85
2023-05-18T08:36:45.740Z,5.85
2023-05-18T08:39:12.935Z,21.50
2023-05-18T08:41:48.442Z,9.63
2023-05-18T08:44:20.734Z,7.70
2023-05-18T08:46:51.162Z,3.20
2023-05-18T08:49:19.618Z,5.95
2023-05-18T08:51:54.478Z,3.65
2023-05-18T08:54:22.991Z,6.43
2023-05-18T08:56:52.149Z,4.45
2023-05-18T08:59:25.600Z,5.93
2023-05-18T09:01:54.959Z,5.13
2023-05-18T09:04:22.397Z,4.43
2023-05-18T09:06:51.411Z,5.78
2023-05-18T09:09:18.772Z,5.25
2023-05-18T09:11:47.360Z,4.70
2023-05-18T09:14:14.296Z,4.72
2023-05-18T09:16:41.261Z,5.63
2023-05-18T09:19:08.439Z,5.32
2023-05-18T09:21:35.294Z,5.28
2023-05-18T09:24:02.343Z,5.15
2023-05-18T09:26:29.286Z,5.22
2023-05-18T09:28:56.132Z,7.32
2023-05-18T09:31:24.824Z,5.38
2023-05-18T09:33:52.499Z,6.05
2023-05-18T09:36:25.854Z,4.18
2023-05-18T09:38:53.099Z,5.15
2023-05-18T09:41:20.258Z,6.85
2023-05-18T09:43:51.454Z,6.45
2023-05-18T09:48:49.047Z,8.27
2023-05-18T09:51:25.046Z,3.67
2023-05-18T09:53:56.835Z,8.23
2023-05-18T09:56:25.125Z,6.15
2023-05-18T09:58:52.023Z,6.68
2023-05-18T10:01:19.291Z,6.13
2023-05-18T10:03:48.533Z,7.68
2023-05-18T10:06:19.845Z,6.18
2023-05-18T10:11:17.267Z,4.90
2023-05-18T10:13:46.899Z,7.10
2023-05-18T10:16:15.792Z,6.07
2023-05-18T10:18:43.430Z,7.25
2023-05-18T10:21:14.435Z,6.68
2023-05-18T10:23:41.771Z,6.68
2023-05-18T10:26:09.997Z,8.32
2023-05-18T10:28:47.539Z,8.40
2023-05-18T10:31:16.708Z,4.13
2023-05-18T10:33:44.546Z,5.15
2023-05-18T10:36:11.788Z,3.33
2023-05-18T10:38:39.957Z,4.15
2023-05-18T10:41:08.288Z,4.28
2023-05-18T10:43:36.611Z,6.05
2023-05-18T10:46:09.829Z,6.00
2023-05-18T10:48:40.496Z,5.72
2023-05-18T10:51:08.455Z,4.90
2023-05-18T10:53:36.686Z,4.25
2023-05-18T10:56:04.136Z,4.47
2023-05-18T10:58:32.083Z,3.85
2023-05-18T11:01:01.639Z,6.35
2023-05-18T11:03:28.876Z,5.95
2023-05-18T11:06:10.317Z,10.20
2023-05-18T11:08:47.429Z,9.40
2023-05-18T11:11:17.260Z,5.75
2023-05-18T11:13:50.830Z,8.15
2023-05-18T11:16:34.466Z,10.20
2023-05-18T11:19:12.319Z,7.18
2023-05-18T11:21:41.710Z,5.95
2023-05-18T11:24:22.194Z,8.40
2023-05-18T11:26:52.090Z,8.57
2023-05-18T11:29:19.758Z,7.97
2023-05-18T11:31:54.429Z,5.45
2023-05-18T11:34:45.718Z,9.73
2023-05-18T11:37:13.791Z,6.82
2023-05-18T11:39:51.772Z,5.70
2023-05-18T11:42:32.889Z,6.38
2023-05-18T11:45:06.963Z,5.25
2023-05-18T11:47:34.516Z,8.05
2023-05-18T11:50:01.299Z,11.63
2023-05-18T11:52:28.228Z,13.43
2023-05-18T11:54:59.788Z,7.85
2023-05-18T11:57:35.409Z,5.18
2023-05-18T12:00:08.027Z,6.68
2023-05-18T12:02:44.266Z,11.60
2023-05-18T12:05:11.863Z,10.52
2023-05-18T12:07:40.579Z,6.72
2023-05-18T12:10:10.279Z,10.75
2023-05-18T12:12:37.341Z,5.30
2023-05-18T12:15:06.347Z,9.57
2023-05-18T12:17:43.295Z,7.47
2023-05-18T12:20:21.469Z,8.32
2023-05-18T12:22:55.512Z,7.28
2023-05-18T12:25:27.973Z,6.97
2023-05-18T12:27:55.451Z,8.00
2023-05-18T12:30:24.700Z,11.15
2023-05-18T12:32:57.059Z,8.18
2023-05-18T12:35:28.460Z,8.75
2023-05-18T12:40:23.467Z,6.97
2023-05-18T12:43:01.181Z,7.22
2023-05-18T12:45:32.205Z,10.95
2023-05-18T12:48:26.656Z,11.18
2023-05-18T12:50:53.582Z,12.43
2023-05-18T12:53:20.441Z,15.38
2023-05-18T12:55:57.751Z,17.45
2023-05-18T12:58:24.812Z,12.23
2023-05-18T13:00:51.577Z,23.00
2023-05-18T13:03:22.279Z,16.88
2023-05-18T13:08:36.445Z,19.40
2023-05-18T13:13:38.732Z,7.57
2023-05-18T13:16:15.413Z,9.95
2023-05-18T13:18:46.851Z,19.95
2023-05-18T13:21:13.780Z,10.73
2023-05-18T13:23:41.100Z,19.48
2023-05-18T13:26:07.853Z,20.80
2023-05-18T13:28:35.876Z,19.05
2023-05-18T13:31:02.938Z,10.38
2023-05-18T13:33:29.762Z,12.00
2023-05-18T13:35:56.519Z,8.90
2023-05-18T13:38:23.350Z,8.57
2023-05-18T13:40:50.108Z,4.38
2023-05-18T13:43:16.921Z,5.57
2023-05-18T13:45:43.834Z,4.80
2023-05-18T13:48:11.295Z,8.13
2023-05-18T13:50:40.060Z,6.57
2023-05-18T13:53:07.295Z,8.82
2023-05-18T13:55:34.774Z,11.98
2023-05-18T13:58:01.880Z,9.32
2023-05-18T14:00:28.746Z,13.82
2023-05-18T14:02:56.718Z,11.20
2023-05-18T14:05:24.073Z,14.60
2023-05-18T14:07:54.477Z,21.25
2023-05-18T14:10:21.473Z,7.90
2023-05-18T14:12:48.638Z,13.07
2023-05-18T14:15:15.560Z,14.57
2023-05-18T14:17:43.611Z,9.95
2023-05-18T14:20:12.170Z,11.05
2023-05-18T14:22:39.090Z,13.77
2023-05-18T14:25:06.445Z,24.75
2023-05-18T14:27:33.288Z,25.80
2023-05-18T14:30:00.120Z,23.33
2023-05-18T14:32:27.031Z,11.43
2023-05-18T14:34:55.997Z,11.15
2023-05-18T14:37:22.854Z,13.60
2023-05-18T14:39:49.678Z,12.48
2023-05-18T14:42:16.628Z,16.05
2023-05-18T14:44:43.308Z,8.65
2023-05-18T14:47:10.659Z,7.80
2023-05-18T14:49:38.075Z,10.88
2023-05-18T14:52:05.602Z,9.88
2023-05-18T14:54:32.635Z,8.90
2023-05-18T14:56:59.897Z,11.18
2023-05-18T14:59:26.867Z,13.27
2023-05-18T15:01:53.739Z,8.18
2023-05-18T15:04:21.994Z,11.70
2023-05-18T15:06:49.803Z,13.32
2023-05-18T15:09:17.430Z,10.63
2023-05-18T15:11:44.330Z,8.55
2023-05-18T15:14:11.202Z,11.82
2023-05-18T15:16:38.929Z,7.60
2023-05-18T15:19:06.084Z,11.75
2023-05-18T15:21:32.968Z,10.25
2023-05-18T15:23:59.900Z,10.98
2023-05-18T15:26:26.990Z,12.20
2023-05-18T15:28:53.955Z,13.52
2023-05-18T15:31:20.846Z,11.38
2023-05-18T15:33:47.832Z,7.05
2023-05-18T15:36:14.840Z,10.70
2023-05-18T15:38:41.668Z,13.38
2023-05-18T15:41:08.653Z,13.18
2023-05-18T15:43:36.742Z,11.18
2023-05-18T15:46:04.439Z,12.02
2023-05-18T15:48:31.276Z,8.70
2023-05-18T15:50:58.003Z,11.65
2023-05-18T15:53:24.753Z,9.80
2023-05-18T15:55:57.435Z,10.85
2023-05-18T15:58:25.286Z,7.75
2023-05-18T16:00:52.172Z,10.88
2023-05-18T16:03:19.300Z,8.52
2023-05-18T16:05:46.346Z,12.32
2023-05-18T16:08:13.132Z,19.80
2023-05-18T16:10:39.915Z,11.93
2023-05-18T16:13:06.716Z,10.48
2023-05-18T16:15:34.938Z,9.93
2023-05-18T16:18:02.036Z,8.85
2023-05-18T16:23:26.967Z,8.57
2023-05-18T16:25:53.785Z,9.98
2023-05-18T16:28:20.595Z,9.32
2023-05-18T16:30:47.350Z,8.02
2023-05-18T16:33:14.286Z,8.02
2023-05-18T16:35:41.131Z,7.10
2023-05-18T16:38:07.918Z,5.68
2023-05-18T16:40:34.804Z,9.98
2023-05-18T16:43:01.721Z,7.72
2023-05-18T16:45:28.432Z,6.82
2023-05-18T16:47:55.629Z,7.15
2023-05-18T16:50:22.429Z,7.47
2023-05-18T16:52:49.259Z,7.25
2023-05-18T16:55:16.161Z,6.05
2023-05-18T16:57:46.144Z,18.30
2023-05-18T17:00:13.456Z,10.40
2023-05-18T17:02:40.428Z,6.20
2023-05-18T17:05:08.646Z,6.70
2023-05-18T17:07:36.457Z,13.70
2023-05-18T17:10:07.008Z,7.93
2023-05-18T17:15:03.515Z,10.00
2023-05-18T17:17:30.521Z,5.82
2023-05-18T17:19:57.402Z,7.07
2023-05-18T17:22:24.225Z,9.05
2023-05-18T17:24:51.164Z,11.90
2023-05-18T17:27:18.103Z,7.22
2023-05-18T17:29:44.827Z,6.75
2023-05-18T17:32:11.683Z,6.65
2023-05-18T17:34:40.336Z,7.32
2023-05-18T17:37:07.470Z,7.63
2023-05-18T17:39:34.256Z,7.93
2023-05-18T17:42:01.806Z,6.53
2023-05-18T17:44:28.625Z,5.57
2023-05-18T17:46:56.376Z,8.48
2023-05-18T17:49:23.131Z,4.88
2023-05-18T17:51:50.080Z,5.97
2023-05-18T17:54:16.965Z,8.32
2023-05-18T17:56:43.770Z,4.25
2023-05-18T17:59:10.848Z,7.72
2023-05-18T18:01:38.171Z,7.30
2023-05-18T18:04:05.236Z,10.43
2023-05-18T18:06:36.009Z,5.88
2023-05-18T18:09:04.909Z,7.22
2023-05-18T18:11:32.155Z,5.80
2023-05-18T18:13:59.691Z,7.32
2023-05-18T18:16:26.628Z,7.07
2023-05-18T18:18:53.605Z,8.55
2023-05-18T18:21:20.443Z,8.10
2023-05-18T18:23:47.366Z,6.07
2023-05-18T18:26:14.168Z,7.38
2023-05-18T18:28:41.682Z,6.40
2023-05-18T18:31:08.728Z,7.63
2023-05-18T18:33:35.593Z,6.55
2023-05-18T18:36:03.949Z,5.82
2023-05-18T18:38:31.323Z,5.85
2023-05-18T18:41:01.583Z,10.90
2023-05-18T18:43:28.921Z,7.00
2023-05-18T18:45:57.131Z,5.90
2023-05-18T18:48:24.800Z,8.38
2023-05-18T18:50:51.851Z,5.68
2023-05-18T18:53:18.747Z,9.02
2023-05-18T18:55:45.751Z,9.40
2023-05-18T18:58:12.580Z,9.05
2023-05-18T19:00:39.347Z,10.07
2023-05-18T19:03:06.392Z,8.57
2023-05-18T19:05:33.561Z,5.10
2023-05-18T19:08:06.749Z,4.57
2023-05-18T19:10:34.428Z,3.47
2023-05-18T19:13:05.740Z,3.40
2023-05-18T19:15:34.874Z,1.88
2023-05-18T19:18:06.630Z,4.38
2023-05-18T19:20:38.316Z,2.60
2023-05-18T19:23:05.732Z,1.67
2023-05-18T19:25:32.925Z,2.05
2023-05-18T19:28:01.079Z,1.23
2023-05-18T19:30:27.909Z,0.85
2023-05-18T19:32:56.029Z,0.80
2023-05-18T19:35:25.858Z,1.35
2023-05-18T19:37:53.770Z,0.50
2023-05-18T19:40:22.744Z,1.15
2023-05-18T19:42:50.253Z,0.73
2023-05-18T19:45:17.089Z,0.65
2023-05-18T19:47:47.081Z,1.60
2023-05-18T19:50:13.972Z,1.58
2023-05-18T19:52:41.284Z,1.75
2023-05-18T19:55:10.916Z,1.45
2023-05-18T19:57:42.029Z,0.98
2023-05-18T20:00:11.261Z,0.43
2023-05-18T20:02:45.927Z,1.38
2023-05-18T20:05:18.872Z,1.38
2023-05-18T20:07:46.302Z,7.32
2023-05-18T20:10:13.108Z,1.20
2023-05-18T20:12:41.325Z,1.05
2023-05-18T20:15:09.152Z,0.52
2023-05-18T20:17:37.230Z,0.60
2023-05-18T20:20:08.131Z,0.30
2023-05-18T20:22:40.993Z,0.90
2023-05-18T20:25:13.169Z,2.08
2023-05-18T20:27:45.172Z,1.15
2023-05-18T20:30:12.764Z,0.40
2023-05-18T20:32:39.830Z,0.50
2023-05-18T20:35:07.029Z,0.68
2023-05-18T20:37:46.713Z,0.60
2023-05-18T20:40:16.685Z,0.40
2023-05-18T20:42:45.849Z,0.80
2023-05-18T20:45:13.855Z,1.10
2023-05-18T20:47:42.890Z,0.40
2023-05-18T20:50:09.919Z,0.70
2023-05-18T20:52:39.148Z,1.13
2023-05-18T20:55:06.318Z,0.50
2023-05-18T20:57:34.728Z,1.95
2023-05-18T21:00:01.556Z,0.70
2023-05-18T21:02:31.570Z,0.20
2023-05-18T21:04:58.505Z,0.40
2023-05-18T21:07:25.317Z,0.40
2023-05-18T21:09:52.083Z,0.52
2023-05-18T21:12:18.784Z,0.52
2023-05-18T21:14:45.805Z,1.77
2023-05-18T21:17:12.945Z,0.30
2023-05-18T21:19:43.049Z,0.63
2023-05-18T21:22:10.990Z,1.90
2023-05-18T21:24:37.791Z,2.03
2023-05-18T21:27:07.521Z,0.30
2023-05-18T21:29:34.362Z,0.35
2023-05-18T21:32:01.168Z,0.60
2023-05-18T21:34:29.180Z,0.70
2023-05-18T21:36:59.288Z,0.40
2023-05-18T21:39:26.180Z,0.70
2023-05-18T21:41:58.973Z,0.52
2023-05-18T21:44:25.902Z,1.02
2023-05-18T21:46:55.343Z,2.53
2023-05-18T21:49:22.162Z,3.13
2023-05-18T21:51:52.275Z,0.63
2023-05-18T21:54:19.547Z,2.25
2023-05-18T21:56:46.294Z,0.35
2023-05-18T21:59:13.304Z,0.65
2023-05-18T22:01:40.198Z,0.70
2023-05-18T22:04:07.064Z,0.30
2023-05-18T22:06:33.931Z,0.80
2023-05-18T22:09:00.867Z,0.75
2023-05-18T22:11:27.617Z,0.95
2023-05-18T22:13:54.407Z,0.32
2023-05-18T22:16:21.684Z,0.50
2023-05-18T22:18:48.488Z,0.77
2023-05-18T22:21:15.430Z,1.27
2023-05-18T22:23:42.673Z,1.63
2023-05-18T22:26:09.424Z,0.40
2023-05-18T22:28:36.482Z,0.40
2023-05-18T22:31:03.260Z,0.47
2023-05-18T22:33:32.483Z,0.60
2023-05-18T22:35:59.548Z,0.65
2023-05-18T22:38:26.798Z,1.38
2023-05-18T22:40:54.168Z,0.45
2023-05-18T22:43:21.597Z,0.20
2023-05-18T22:45:48.737Z,0.85
2023-05-18T22:48:15.685Z,0.70
2023-05-18T22:50:42.586Z,1.52
2023-05-18T22:53:12.120Z,1.55
2023-05-18T22:55:39.290Z,0.60
2023-05-18T22:58:06.081Z,2.45
2023-05-18T23:00:35.752Z,2.22
2023-05-18T23:03:02.703Z,0.85
2023-05-18T23:05:29.576Z,0.90
2023-05-18T23:07:58.209Z,1.25
2023-05-18T23:10:26.508Z,1.55
2023-05-18T23:12:55.673Z,0.60
2023-05-18T23:15:23.144Z,0.47
2023-05-18T23:17:50.370Z,1.58
2023-05-18T23:20:17.211Z,1.38
2023-05-18T23:22:44.483Z,0.30
2023-05-18T23:25:11.485Z,0.63
2023-05-18T23:27:38.318Z,1.33
2023-05-18T23:30:05.781Z,0.82
2023-05-18T23:32:32.930Z,0.93
2023-05-18T23:35:00.056Z,0.55
2023-05-18T23:37:26.939Z,0.50
2023-05-18T23:39:56.435Z,1.75
2023-05-18T23:42:24.690Z,0.57
2023-05-18T23:44:51.871Z,0.63
2023-05-18T23:47:18.822Z,1.48
2023-05-18T23:49:47.380Z,1.15
2023-05-18T23:52:16.277Z,0.80
2023-05-18T23:54:45.617Z,1.20
2023-05-18T23:57:12.869Z,0.73
2023-05-18T23:59:41.009Z,0.38
